Data for 02/07/2005

Time Sea-Level Adjusted Pressure Absolute Pressure Temperature Relative Humidity Dew Point   
(mb) (inHg) (mb) (inHg) (C) (F) (%) (C) (F)
00:05 1014 29.94 843 24.89 -10.5 13 71 -14.8 5.3
00:10 1014 29.94 843 24.89 -10.6 13 72 -14.7 5.5
00:15 1014 29.94 843 24.89 -10.6 13 71 -14.8 5.3
00:20 1014 29.94 843 24.89 -10.7 12.8 73 -14.7 5.6
00:25 1014 29.94 843 24.89 -10.7 12.8 72 -14.7 5.5
00:30 1014 29.94 843 24.89 -10.7 12.7 73 -14.7 5.6
00:35 1014 29.94 843 24.89 -10.7 12.8 73 -14.7 5.6
00:40 1014 29.94 843 24.89 -10.7 12.7 72 -14.9 5.2
00:45 1014 29.94 843 24.89 -10.8 12.6 72 -14.9 5.1
00:50 1014 29.94 843 24.89 -10.8 12.6 72 -14.8 5.3
00:55 1014 29.94 843 24.89 -10.7 12.7 72 -14.9 5.3
01:00 1014 29.94 843 24.89 -10.7 12.7 72 -14.9 5.2
01:05 1014 29.94 843 24.89 -10.8 12.5 73 -14.9 5.2
01:10 1014 29.94 843 24.89 -10.8 12.5 73 -14.8 5.3
01:15 1014 29.94 843 24.89 -10.9 12.4 74 -14.7 5.5
01:20 1014 29.94 843 24.89 -11 12.2 73 -14.9 5.2
01:25 1014 29.94 843 24.89 -11 12.3 74 -14.8 5.3
01:30 1014 29.94 843 24.89 -10.9 12.3 73 -14.8 5.3
01:35 1014 29.94 843 24.89 -11 12.3 73 -15 5.1
01:40 1014 29.94 843 24.89 -11 12.2 73 -14.9 5.2
01:45 1014 29.94 843 24.89 -11.1 12.1 73 -15 5
01:50 1014 29.94 843 24.89 -11 12.1 73 -15 5
01:55 1014 29.94 843 24.89 -11.1 12 73 -15 5
02:00 1014 29.94 843 24.89 -11.1 12 74 -14.9 5.1
02:05 1014 29.94 843 24.89 -11.1 12 73 -15 5.1
02:10 1014 29.94 843 24.89 -11.1 12 74 -14.9 5.3
02:15 1014 29.94 843 24.89 -11.1 11.9 74 -14.9 5.1
02:20 1014 29.94 843 24.89 -11.2 11.9 74 -14.9 5.2
02:25 1014 29.94 843 24.89 -11.2 11.9 74 -14.9 5.1
02:30 1014 29.94 843 24.89 -11.3 11.8 75 -14.8 5.4
02:35 1014 29.94 843 24.89 -11.3 11.6 75 -14.9 5.2
02:40 1014 29.94 843 24.89 -11.4 11.6 75 -14.9 5.2
02:45 1014 29.94 843 24.89 -11.3 11.6 75 -14.9 5.1
02:50 1014 29.94 843 24.89 -11.4 11.5 74 -15.2 4.7
02:55 1014 29.94 843 24.89 -11.4 11.5 74 -15.1 4.8
03:00 1014 29.94 843 24.89 -11.4 11.5 74 -15.1 4.8
03:05 1014 29.94 843 24.89 -11.4 11.4 74 -15.2 4.6
03:10 1014 29.94 843 24.89 -11.5 11.4 74 -15.2 4.6
03:15 1014 29.94 843 24.89 -11.5 11.2 74 -15.3 4.5
03:20 1014 29.94 843 24.89 -11.6 11.2 75 -15.2 4.6
03:25 1014 29.94 843 24.89 -11.6 11.1 74 -15.4 4.3
03:30 1014 29.94 843 24.89 -11.6 11.2 74 -15.3 4.4
03:35 1014 29.94 843 24.89 -11.6 11.1 74 -15.4 4.3
03:40 1014 29.94 843 24.89 -11.6 11.1 74 -15.3 4.4
03:45 1014 29.94 843 24.89 -11.7 11 74 -15.3 4.4
03:50 1014 29.94 843 24.89 -11.6 11.1 75 -15.2 4.6
03:55 1014 29.94 843 24.89 -11.6 11.1 74 -15.4 4.2
04:00 1014 29.94 843 24.89 -11.5 11.3 73 -15.4 4.3
04:05 1014 29.94 843 24.89 -11.5 11.4 74 -15.2 4.7
04:10 1014 29.94 843 24.89 -11.5 11.3 75 -15 4.9
04:15 1014 29.94 843 24.89 -11.5 11.3 75 -15 5
04:20 1014 29.94 843 24.89 -11.6 11.2 74 -15.2 4.6
04:25 1014 29.94 843 24.89 -11.6 11.2 74 -15.3 4.4
04:30 1014 29.94 843 24.89 -11.6 11.2 74 -15.3 4.4
04:35 1014 29.94 843 24.89 -11.5 11.3 74 -15.3 4.4
04:40 1014 29.94 843 24.89 -11.6 11.2 74 -15.3 4.4
04:45 1014 29.94 843 24.89 -11.6 11.1 73 -15.5 4.1
04:50 1014 29.94 843 24.89 -11.6 11 74 -15.4 4.3
04:55 1014 29.94 843 24.89 -11.6 11.2 73 -15.4 4.2
05:00 1014 29.94 843 24.89 -11.6 11.2 73 -15.5 4.1
05:05 1014 29.94 843 24.89 -11.6 11.2 74 -15.3 4.5
05:10 1014 29.94 844 24.92 -11.6 11.2 74 -15.3 4.5
05:15 1014 29.94 844 24.92 -11.6 11.1 75 -15.2 4.6
05:20 1014 29.94 844 24.92 -11.6 11.1 75 -15.2 4.7
05:25 1014 29.94 844 24.92 -11.7 11 76 -15.1 4.8
05:30 1014 29.94 844 24.92 -11.7 11 78 -14.8 5.3
05:35 1015 29.97 844 24.92 -11.7 10.9 77 -15 5
05:40 1015 29.97 844 24.92 -11.7 10.9 77 -14.9 5.2
05:45 1015 29.97 844 24.92 -11.7 10.9 79 -14.7 5.5
05:50 1015 29.97 844 24.92 -11.7 11 79 -14.6 5.7
05:55 1015 29.97 844 24.92 -11.6 11.1 79 -14.6 5.7
06:00 1015 29.97 844 24.92 -11.6 11.1 79 -14.6 5.8
06:05 1015 29.97 844 24.92 -11.7 11 80 -14.4 6
06:10 1015 29.97 844 24.92 -11.6 11.2 80 -14.4 6.1
06:15 1015 29.97 844 24.92 -11.6 11.1 81 -14.3 6.2
06:20 1015 29.97 844 24.92 -11.6 11 81 -14.3 6.3
06:25 1015 29.97 844 24.92 -11.7 10.9 82 -14.3 6.3
06:30 1015 29.97 844 24.92 -11.7 10.9 82 -14.2 6.4
06:35 1015 29.97 844 24.92 -11.8 10.8 81 -14.4 6.2
06:40 1015 29.97 844 24.92 -11.8 10.7 81 -14.5 5.9
06:45 1015 29.97 844 24.92 -11.9 10.7 81 -14.5 5.9
06:50 1015 29.97 844 24.92 -11.9 10.6 81 -14.6 5.8
06:55 1015 29.97 844 24.92 -11.8 10.7 81 -14.5 6
07:00 1015 29.97 844 24.92 -11.8 10.8 80 -14.5 5.8
07:05 1015 29.97 844 24.92 -11.8 10.9 81 -14.4 6.1
07:10 1015 29.97 844 24.92 -11.7 10.9 82 -14.3 6.3
07:15 1015 29.97 844 24.92 -11.8 10.8 81 -14.4 6.1
07:20 1015 29.97 844 24.92 -11.8 10.7 81 -14.4 6
07:25 1015 29.97 844 24.92 -11.8 10.7 81 -14.4 6.1
07:30 1015 29.97 844 24.92 -11.8 10.7 82 -14.3 6.2
07:35 1015 29.97 844 24.92 -11.9 10.7 81 -14.5 5.8
07:40 1015 29.97 844 24.92 -11.9 10.6 80 -14.6 5.6
07:45 1015 29.97 845 24.95 -11.9 10.6 80 -14.7 5.6
07:50 1015 29.97 845 24.95 -11.9 10.6 79 -14.8 5.4
07:55 1015 29.97 845 24.95 -11.8 10.8 79 -14.8 5.4
08:00 1015 29.97 845 24.95 -11.8 10.8 80 -14.6 5.6
08:05 1016 30 845 24.95 -11.7 11 81 -14.4 6.1
08:10 1016 30 845 24.95 -11.6 11.2 79 -14.5 6
08:15 1016 30 845 24.95 -11.6 11.2 79 -14.5 5.9
08:20 1016 30 845 24.95 -11.5 11.3 80 -14.3 6.2
08:25 1016 30 845 24.95 -11.4 11.6 80 -14.2 6.5
08:30 1016 30 845 24.95 -11.2 11.8 79 -14.1 6.6
08:35 1016 30 845 24.95 -11.2 11.8 81 -13.9 7
08:40 1016 30 845 24.95 -11.2 11.9 82 -13.7 7.3
08:45 1016 30 845 24.95 -11.1 12 80 -13.9 7
08:50 1016 30 845 24.95 -11.2 11.9 81 -13.9 7
08:55 1016 30 845 24.95 -11.2 11.9 81 -13.9 7
09:00 1016 30 845 24.95 -11 12.1 78 -14.1 6.6
09:05 1016 30 845 24.95 -10.9 12.3 77 -14.2 6.4
09:10 1016 30 845 24.95 -10.8 12.6 77 -14.1 6.6
09:15 1016 30 845 24.95 -10.7 12.8 75 -14.3 6.3
09:20 1016 30 845 24.95 -10.4 13.4 74 -14.2 6.5
09:25 1016 30 845 24.95 -10 13.9 72 -14.2 6.4
09:30 1016 30 845 24.95 -9.8 14.3 70 -14.3 6.3
09:35 1016 30 845 24.95 -9.8 14.3 69 -14.4 6
09:40 1016 30 845 24.95 -9.5 14.9 69 -14.1 6.5
09:45 1016 30 845 24.95 -9.1 15.6 67 -14.1 6.5
09:50 1016 30 845 24.95 -8.9 16 67 -13.9 6.9
09:55 1016 30 845 24.95 -8.8 16.1 67 -13.9 7
10:00 1016 30 845 24.95 -8.6 16.6 66 -13.9 7
10:05 1016 30 845 24.95 -8.5 16.8 68 -13.4 7.8
10:10 1016 30 845 24.95 -7.9 17.7 64 -13.5 7.6
10:15 1016 30 845 24.95 -7.7 18.2 66 -13 8.6
10:20 1016 30 845 24.95 -7.6 18.4 69 -12.3 9.9
10:25 1016 30 845 24.95 -7.3 18.9 69 -12.1 10.2
10:30 1016 30 845 24.95 -6.5 20.4 64 -12.2 10.1
10:35 1016 30 845 24.95 -5.6 21.9 60 -12.3 9.9
10:40 1016 30 845 24.95 -5 23.1 57 -12.1 10.2
10:45 1016 30 845 24.95 -5 23.1 58 -12 10.4
10:50 1016 30 845 24.95 -5.7 21.7 63 -11.7 10.9
10:55 1016 30 845 24.95 -6.2 20.9 64 -12 10.5
11:00 1016 30 845 24.95 -5.6 21.9 61 -12 10.4
11:05 1016 30 845 24.95 -6.3 20.7 68 -11.2 11.8
11:10 1016 30 845 24.95 -5.8 21.5 63 -11.8 10.8
11:15 1016 30 845 24.95 -4.7 23.5 59 -11.6 11.1
11:20 1016 30 845 24.95 -4.9 23.2 60 -11.6 11.2
11:25 1016 30 845 24.95 -5.6 21.9 64 -11.4 11.4
11:30 1016 30 845 24.95 -6.4 20.5 66 -11.6 11
11:35 1016 30 845 24.95 -7 19.4 71 -11.5 11.4
11:40 1016 30 845 24.95 -6.2 20.8 66 -11.7 11
11:45 1016 30 845 24.95 -5.6 21.9 63 -11.5 11.3
11:50 1016 30 845 24.95 -5.5 22 64 -11.4 11.5
11:55 1016 30 845 24.95 -4.8 23.4 62 -11 12.1
12:00 1016 30 845 24.95 -5.2 22.6 65 -10.8 12.6
12:05 1016 30 845 24.95 -5.8 21.5 63 -11.8 10.8
12:10 1016 30 845 24.95 -5 23 60 -11.5 11.3
12:15 1016 30 845 24.95 -5.6 22 63 -11.5 11.3
12:20 1016 30 845 24.95 -5.8 21.6 62 -12 10.3
12:25 1015 29.97 845 24.95 -4.2 24.4 55 -12 10.5
12:30 1015 29.97 845 24.95 -3.8 25.1 57 -11.1 11.9
12:35 1015 29.97 845 24.95 -3.8 25.1 58 -11 12.2
12:40 1015 29.97 845 24.95 -3.8 25.2 56 -11.3 11.7
12:45 1015 29.97 845 24.95 -3.4 25.9 54 -11.3 11.6
12:50 1015 29.97 845 24.95 -3.7 25.3 58 -10.7 12.7
12:55 1015 29.97 845 24.95 -3.7 25.4 58 -10.7 12.7
13:00 1015 29.97 845 24.95 -4.1 24.7 64 -10 14
13:05 1015 29.97 845 24.95 -4.8 23.3 63 -10.8 12.6
13:10 1015 29.97 845 24.95 -3.8 25.1 59 -10.7 12.7
13:15 1015 29.97 845 24.95 -3.7 25.3 59 -10.6 12.9
13:20 1015 29.97 845 24.95 -4.7 23.6 62 -11 12.2
13:25 1015 29.97 845 24.95 -5.2 22.7 61 -11.5 11.3
13:30 1015 29.97 844 24.92 -4 24.9 58 -11.1 12
13:35 1015 29.97 844 24.92 -2.8 26.9 52 -11.3 11.6
13:40 1015 29.97 844 24.92 -2.9 26.8 57 -10.3 13.4
13:45 1015 29.97 844 24.92 -2.9 26.7 54 -11.1 12.1
13:50 1015 29.97 844 24.92 -3 26.5 57 -10.5 13.1
13:55 1015 29.97 844 24.92 -2.7 27.1 55 -10.7 12.8
14:00 1015 29.97 844 24.92 -2.7 27.2 55 -10.6 12.9
14:05 1015 29.97 844 24.92 -3.3 26.1 59 -10.2 13.7
14:10 1015 29.97 844 24.92 -3.9 25 60 -10.5 13.2
14:15 1015 29.97 844 24.92 -3.7 25.3 58 -10.9 12.4
14:20 1015 29.97 844 24.92 -3.9 25 61 -10.4 13.2
14:25 1015 29.97 844 24.92 -3 26.6 56 -10.5 13.1
14:30 1015 29.97 844 24.92 -2.5 27.5 53 -10.7 12.7
14:35 1015 29.97 844 24.92 -2.3 27.8 54 -10.4 13.3
14:40 1015 29.97 844 24.92 -2.2 28 54 -10.3 13.5
14:45 1015 29.97 844 24.92 -3.1 26.4 57 -10.4 13.2
14:50 1015 29.97 844 24.92 -2.5 27.5 53 -10.9 12.4
14:55 1015 29.97 844 24.92 -1.9 28.5 52 -10.6 12.9
15:00 1015 29.97 844 24.92 -2 28.4 51 -10.9 12.4
15:05 1015 29.97 844 24.92 -2.5 27.4 53 -10.9 12.3
15:10 1015 29.97 844 24.92 -2.3 27.9 51 -11.1 12.1
15:15 1015 29.97 844 24.92 -2.1 28.1 53 -10.4 13.3
15:20 1015 29.97 845 24.95 -2.1 28.3 54 -10.1 13.8
15:25 1015 29.97 845 24.95 -2.4 27.7 55 -10.3 13.4
15:30 1015 29.97 845 24.95 -3.1 26.5 57 -10.5 13.1
15:35 1015 29.97 845 24.95 -2.5 27.4 54 -10.7 12.7
15:40 1015 29.97 845 24.95 -2.3 27.9 53 -10.5 13.1
15:45 1015 29.97 845 24.95 -2.7 27.1 55 -10.6 13
15:50 1016 30 845 24.95 -3.9 25 61 -10.4 13.3
15:55 1016 30 845 24.95 -4.6 23.7 63 -10.7 12.7
16:00 1016 30 845 24.95 -4.6 23.8 62 -10.8 12.6
16:05 1016 30 845 24.95 -4.6 23.7 64 -10.4 13.2
16:10 1016 30 845 24.95 -4.4 24.1 62 -10.6 12.9
16:15 1016 30 845 24.95 -4.5 24 61 -10.8 12.6
16:20 1016 30 845 24.95 -4.4 24.2 61 -10.7 12.7
16:25 1016 30 845 24.95 -4 24.8 59 -10.8 12.5
16:30 1016 30 845 24.95 -3.4 25.9 58 -10.6 12.9
16:35 1016 30 845 24.95 -3.1 26.4 57 -10.4 13.3
16:40 1016 30 845 24.95 -3.2 26.3 57 -10.6 13
16:45 1016 30 845 24.95 -3.3 26.1 57 -10.6 12.9
16:50 1016 30 845 24.95 -3.7 25.4 59 -10.5 13.1
16:55 1015 29.97 845 24.95 -4.5 24 63 -10.6 13
17:00 1015 29.97 845 24.95 -4.9 23.1 63 -10.8 12.5
17:05 1015 29.97 845 24.95 -5 22.9 64 -10.8 12.6
17:10 1015 29.97 845 24.95 -4.5 24 62 -10.8 12.6
17:15 1015 29.97 845 24.95 -4.5 23.9 62 -10.7 12.8
17:20 1015 29.97 845 24.95 -5 23.1 63 -11 12.1
17:25 1015 29.97 845 24.95 -5 23 63 -10.9 12.3
17:30 1015 29.97 845 24.95 -4.9 23.2 63 -11 12.2
17:35 1015 29.97 845 24.95 -4.9 23.2 64 -10.7 12.7
17:40 1016 30 845 24.95 -5.2 22.6 65 -10.7 12.7
17:45 1016 30 845 24.95 -5.4 22.3 66 -10.8 12.6
17:50 1016 30 845 24.95 -5.5 22.1 66 -10.9 12.4
17:55 1016 30 845 24.95 -5.6 22 66 -11 12.3
18:00 1016 30 845 24.95 -5.5 22.1 66 -11 12.2
18:05 1016 30 845 24.95 -5.6 22 67 -10.8 12.5
18:10 1016 30 845 24.95 -5.7 21.8 68 -10.8 12.6
18:15 1016 30 845 24.95 -5.8 21.6 68 -10.8 12.6
18:20 1016 30 845 24.95 -5.8 21.5 69 -10.6 12.9
18:25 1016 30 845 24.95 -6.2 20.9 71 -10.6 12.9
18:30 1016 30 845 24.95 -6.3 20.6 72 -10.7 12.8
18:35 1016 30 845 24.95 -6.6 20.2 70 -11.1 12.1
18:40 1016 30 845 24.95 -6.9 19.6 72 -11.2 11.9
18:45 1016 30 845 24.95 -7 19.5 72 -11.2 11.9
18:50 1016 30 845 24.95 -7 19.4 72 -11.2 11.8
18:55 1016 30 845 24.95 -7 19.5 71 -11.3 11.6
19:00 1016 30 845 24.95 -6.9 19.5 72 -11.3 11.7
19:05 1016 30 845 24.95 -6.8 19.8 70 -11.3 11.6
19:10 1016 30 845 24.95 -6.7 19.9 71 -11.1 11.9
19:15 1016 30 845 24.95 -7.1 19.3 71 -11.5 11.3
19:20 1016 30 845 24.95 -7.6 18.4 72 -11.8 10.7
19:25 1016 30 845 24.95 -7.6 18.2 72 -11.8 10.8
19:30 1016 30 845 24.95 -7.7 18.2 73 -11.7 11
19:35 1016 30 845 24.95 -7.6 18.3 73 -11.7 11
19:40 1016 30 845 24.95 -7.6 18.4 73 -11.6 11.1
19:45 1016 30 845 24.95 -7.5 18.4 73 -11.6 11.2
19:50 1016 30 845 24.95 -7.5 18.5 73 -11.5 11.3
19:55 1016 30 845 24.95 -7.5 18.4 74 -11.5 11.3
20:00 1016 30 845 24.95 -7.5 18.6 73 -11.5 11.3
20:05 1016 30 845 24.95 -7.5 18.4 74 -11.5 11.3
20:10 1016 30 845 24.95 -7.5 18.5 73 -11.5 11.2
20:15 1016 30 845 24.95 -7.6 18.4 74 -11.5 11.2
20:20 1016 30 845 24.95 -7.6 18.3 73 -11.7 11
20:25 1016 30 845 24.95 -7.7 18.2 74 -11.6 11.1
20:30 1016 30 845 24.95 -7.8 18 74 -11.7 11
20:35 1016 30 845 24.95 -7.7 18.1 73 -11.7 10.9
20:40 1016 30 845 24.95 -7.6 18.4 73 -11.6 11.1
20:45 1016 30 845 24.95 -7.6 18.4 73 -11.6 11.2
20:50 1016 30 845 24.95 -7.5 18.5 73 -11.5 11.2
20:55 1016 30 845 24.95 -7.5 18.4 73 -11.6 11.2
21:00 1016 30 845 24.95 -7.6 18.4 73 -11.6 11.1
21:05 1016 30 845 24.95 -7.5 18.4 73 -11.6 11.1
21:10 1016 30 845 24.95 -7.5 18.4 73 -11.6 11.1
21:15 1016 30 845 24.95 -7.6 18.3 74 -11.5 11.2
21:20 1016 30 845 24.95 -7.7 18.2 74 -11.6 11.1
21:25 1016 30 845 24.95 -7.7 18.2 74 -11.6 11.2
21:30 1016 30 845 24.95 -7.7 18.1 74 -11.6 11.1
21:35 1016 30 845 24.95 -7.7 18.1 74 -11.6 11
21:40 1016 30 845 24.95 -7.6 18.3 73 -11.6 11.2
21:45 1016 30 845 24.95 -7.9 17.8 75 -11.6 11.1
21:50 1016 30 845 24.95 -8 17.6 75 -11.7 11
21:55 1016 30 845 24.95 -8 17.6 75 -11.7 11
22:00 1016 30 845 24.95 -7.9 17.8 75 -11.6 11
22:05 1016 30 845 24.95 -7.7 18.1 74 -11.6 11.2
22:10 1016 30 845 24.95 -7.6 18.2 73 -11.6 11.1
22:15 1016 30 845 24.95 -7.6 18.3 73 -11.6 11.2
22:20 1016 30 845 24.95 -7.6 18.4 73 -11.5 11.2
22:25 1016 30 845 24.95 -7.7 18.2 74 -11.5 11.3
22:30 1016 30 845 24.95 -7.7 18.2 74 -11.5 11.4
22:35 1016 30 845 24.95 -7.6 18.3 74 -11.5 11.3
22:40 1016 30 845 24.95 -7.5 18.4 74 -11.4 11.4
22:45 1016 30 845 24.95 -7.6 18.3 74 -11.4 11.4
22:50 1016 30 845 24.95 -7.5 18.5 74 -11.4 11.5
22:55 1016 30 845 24.95 -7.4 18.8 74 -11.2 11.8
23:00 1016 30 845 24.95 -7.3 18.8 75 -11.1 12.1
23:05 1016 30 845 24.95 -7.3 18.9 75 -11.1 12.1
23:10 1016 30 845 24.95 -7.3 18.9 76 -10.9 12.4
23:15 1016 30 845 24.95 -7.1 19.3 74 -10.9 12.3
23:20 1016 30 845 24.95 -7 19.3 74 -10.8 12.5
23:25 1016 30 845 24.95 -7.1 19.2 75 -10.8 12.6
23:30 1016 30 845 24.95 -7.1 19.1 77 -10.6 12.9
23:35 1016 30 845 24.95 -7.3 18.8 76 -10.8 12.6
23:40 1016 30 845 24.95 -7.5 18.4 77 -10.9 12.3
23:45 1016 30 845 24.95 -7.6 18.3 77 -11 12.2
23:50 1016 30 845 24.95 -7.6 18.3 77 -11 12.2
23:55 1016 30 845 24.95 -7.5 18.5 77 -10.9 12.3
24:00 1016 30 845 24.95 -7.4 18.7 77 -10.8 12.6